Terminal Aerodrome Forecast
Issued by NWS New Orleans/Baton Rouge, LA

Home | Current Version | Previous Version | Text Only | Print | Product List | Glossary On
Versions: 1 2 3 4 5 6 7 8 9 10 11 12 13
000
FTUS44 KLIX 221134
TAFNEW
TAF
KNEW 221134Z 2212/2312 04005KT P6SM FEW015 FEW250
     FM221600 05006KT P6SM FEW045
     FM222100 08006KT P6SM FEW050=

USA.gov is the U.S. government's official web portal to all federal, state and local government web resources and services.